Attica, NY (14011)

10:58 PM EST on December 21, 2014 (GMT -0500)
South of village | Change Station
CLOSE
Current Station
Personal Weather Station
Location: Attica, NY
Elevation: 1007 ft
Nearby Weather Stations

Elev 1007 ft 42.84 °N, 78.29 °W | Updated 13 seconds ago

Overcast
Overcast
25.0 °F
Feels Like 20 °F
N
3.7
Wind Variable Wind from NE
Gusts 4.7 mph

Today
High -- | Low -- °F
--% Chance of Precip.
Yesterday
High -- | Low -- °F
Precip. -- in
7:40 AM 4:41 PM
New Moon, 0% visible
Pressure 30.30 in
Visibility 10.0 miles
Clouds Mostly Cloudy 1800 ft
Overcast 3000 ft
Windchill 20 °F
Dew Point 22 °F
Humidity 89%
Rainfall 0.00 in
Snow Depth Not available.
UV 0 out of 12
Pollen .10 out of 12
Air Quality Not available.
Flu Activity Not available.
METAR KBUF 220354Z 13007KT 10SM BKN018 OVC030 M01/M05 A3027 RMK AO2 SLP260 T10061050

More Conditions Fewer Conditions

Pressure 30.30 in
Visibility 10.0 miles
Clouds Mostly Cloudy 1800 ft
Overcast 3000 ft
Windchill 20 °F
Dew Point 22 °F
Humidity 89%
Rainfall 0.00 in
Snow Depth Not available.
UV 0 out of 12
Pollen .10 out of 12
Air Quality Not available.
Flu Activity Not available.
METAR KBUF 220354Z 13007KT 10SM BKN018 OVC030 M01/M05 A3027 RMK AO2 SLP260 T10061050

More Conditions Fewer Conditions

10-Day Weather Forecast

Almanac

Astronomy

Dec. 21, 2014 Rise Set
Actual Time
Civil Twilight
Nautical Twilight
Astronomical Twilight
Moon
Length of Visible Light
Length of Day
Tomorrow will be .
, % of the Moon is Illuminated

Today's Extremes

State Highs State Lows

Community

WunderPhotos

Upload Photos

1,779,531 photos uploaded!

WunderBlogs® & News

Nearby

Air Quality

  Air Quality AQ Index Pollutant
Not available.

Snow Depth

Station Depth Elevation

Earthquake Activity

City Distance Mag. Time & Date
Minimum magnitude displayed is 2.5.

Coastal Water Temperatures

Place Temperature

Nearby Weather Stations